Time;durP1;ratioP1;P1;durP2;ratioP2;P2;SDS_P1;SDS_P2;PMS_P1;PMS_P2;Temp;Humidity;BMP_temperature;BMP_pressure;BME280_temperature;BME280_humidity;BME280_pressure;Samples;Min_cycle;Max_cycle;Signal;HPM_P1;HPM_P2
2023/07/18 00:00:52;;;;;;;5.40;4.47;;;19.10;83.20;;;21.84;54.86;101932.13;5056786;28;20686;-61
2023/07/18 00:03:20;;;;;;;7.73;4.50;;;19.10;82.90;;;21.86;55.59;101935.41;5057427;28;20288;-62
2023/07/18 00:05:47;;;;;;;8.33;5.07;;;19.10;83.20;;;21.88;55.11;101927.97;5055257;28;20197;-62
2023/07/18 00:08:15;;;;;;;7.47;5.70;;;19.20;82.90;;;21.91;54.67;101937.44;5057571;28;20197;-61
2023/07/18 00:10:43;;;;;;;5.70;4.77;;;19.20;82.70;;;21.91;54.87;101938.25;5037129;28;20222;-61
2023/07/18 00:13:10;;;;;;;6.17;4.97;;;19.20;82.60;;;21.90;54.97;101949.19;5037027;28;20221;-60
2023/07/18 00:15:37;;;;;;;8.50;5.77;;;19.20;82.70;;;21.83;55.12;101949.22;5036970;28;20197;-61
2023/07/18 00:18:04;;;;;;;7.43;6.07;;;19.20;82.20;;;21.69;55.08;101941.50;5035790;28;20692;-62
2023/07/18 00:20:31;;;;;;;8.03;5.77;;;19.10;82.20;;;21.50;56.07;101941.44;5036509;28;20259;-62
2023/07/18 00:22:59;;;;;;;8.20;5.70;;;19.10;82.50;;;21.33;56.09;101951.03;5036512;28;20654;-60
2023/07/18 00:25:28;;;;;;;6.83;6.13;;;19.00;82.60;;;21.16;56.54;101944.53;5036032;28;20244;-62
2023/07/18 00:27:55;;;;;;;8.07;6.67;;;18.80;82.80;;;20.98;56.93;101941.72;5036761;28;20237;-61
2023/07/18 00:30:22;;;;;;;9.77;6.27;;;18.70;83.40;;;20.82;57.01;101948.34;5036295;28;20284;-60
2023/07/18 00:32:49;;;;;;;7.57;5.57;;;18.50;83.90;;;20.73;57.49;101943.44;5036756;28;20648;-62
2023/07/18 00:35:17;;;;;;;8.23;5.57;;;18.40;84.30;;;20.65;57.98;101946.38;5043711;28;20296;-58
2023/07/18 00:37:44;;;;;;;8.33;4.60;;;18.30;84.70;;;20.64;57.95;101942.03;5041714;28;20202;-61
2023/07/18 00:40:14;;;;;;;7.00;5.10;;;18.30;85.40;;;20.71;58.34;101937.47;5035488;28;20230;-62
2023/07/18 00:42:47;;;;;;;12.77;5.93;;;18.20;85.50;;;20.73;57.67;101924.72;5035133;28;20190;-59
2023/07/18 00:45:15;;;;;;;10.30;6.20;;;18.20;85.50;;;20.72;57.80;101931.13;5035029;28;20770;-60
2023/07/18 00:47:45;;;;;;;8.27;5.87;;;18.20;85.20;;;20.74;57.92;101929.03;5035175;28;20221;-60
2023/07/18 00:50:16;;;;;;;7.97;5.70;;;18.20;85.50;;;20.72;57.97;101921.25;5034968;28;20631;-62
2023/07/18 00:52:49;;;;;;;6.50;5.40;;;18.20;85.50;;;20.73;57.55;101924.72;5035032;28;20190;-62
2023/07/18 00:55:16;;;;;;;7.87;5.80;;;18.20;85.20;;;20.72;57.75;101920.41;5054886;28;20700;-61
2023/07/18 00:57:47;;;;;;;7.37;5.30;;;18.20;85.50;;;20.68;57.67;101925.34;5054678;28;20208;-62
2023/07/18 01:00:16;;;;;;;6.63;5.30;;;18.20;85.60;;;20.69;57.98;101926.19;5054655;28;20751;-62
2023/07/18 01:02:45;;;;;;;14.63;6.07;;;18.20;85.50;;;20.67;57.61;101928.25;5055490;28;20193;-61
2023/07/18 01:05:17;;;;;;;9.73;5.80;;;18.10;85.50;;;20.67;57.92;101922.91;5055132;28;20190;-61
2023/07/18 01:07:45;;;;;;;7.20;6.33;;;18.10;85.80;;;20.67;58.04;101928.25;5054843;28;20273;-59
2023/07/18 01:10:17;;;;;;;8.80;6.33;;;18.10;85.60;;;20.60;58.16;101928.28;5046161;28;20594;-62
2023/07/18 01:12:46;;;;;;;8.83;6.60;;;18.10;85.80;;;20.55;58.06;101921.91;5034338;28;20199;-61
2023/07/18 01:15:13;;;;;;;9.13;6.07;;;18.00;85.80;;;20.49;57.91;101930.78;5035017;28;20195;-62
2023/07/18 01:17:44;;;;;;;10.77;6.57;;;18.00;85.80;;;20.41;58.11;101922.97;5034733;28;20647;-61
2023/07/18 01:20:18;;;;;;;9.77;6.63;;;17.90;85.90;;;20.36;58.17;101925.44;5034939;28;20581;-62
2023/07/18 01:22:50;;;;;;;8.40;6.13;;;17.90;86.20;;;20.33;58.29;101928.53;5034339;28;20647;-61
2023/07/18 01:25:17;;;;;;;8.00;6.00;;;17.80;86.20;;;20.38;58.35;101923.38;5034741;28;20211;-61
2023/07/18 01:27:46;;;;;;;7.40;5.67;;;17.90;86.80;;;20.46;58.57;101920.50;5047471;28;20194;-61
2023/07/18 01:30:15;;;;;;;9.23;6.23;;;17.90;87.00;;;20.47;58.11;101920.28;5054334;28;20231;-62
2023/07/18 01:32:42;;;;;;;9.10;6.97;;;17.90;86.60;;;20.45;58.58;101922.34;5037773;28;20286;-62
2023/07/18 01:35:10;;;;;;;8.10;6.20;;;17.90;86.30;;;20.41;58.51;101918.47;5034527;28;20186;-60
2023/07/18 01:37:38;;;;;;;11.13;7.33;;;17.90;86.40;;;20.31;58.63;101914.56;5034421;28;20241;-62
2023/07/18 01:40:08;;;;;;;7.10;5.27;;;17.80;86.40;;;20.29;58.38;101914.78;4999078;28;1016326;-62
2023/07/18 01:42:35;;;;;;;11.30;5.63;;;17.80;86.20;;;20.32;58.81;101910.88;5035282;28;20194;-64
2023/07/18 01:45:03;;;;;;;8.43;4.93;;;17.80;86.90;;;20.40;58.47;101907.94;5036194;28;20245;-61
2023/07/18 01:47:34;;;;;;;7.17;5.87;;;17.80;87.40;;;20.52;58.60;101914.28;5035363;28;20202;-61
2023/07/18 01:50:03;;;;;;;9.70;6.67;;;17.80;87.30;;;20.54;58.37;101901.56;5034810;28;20210;-61
2023/07/18 01:52:32;;;;;;;10.40;6.77;;;17.90;86.80;;;20.51;57.85;101910.00;5034946;28;20297;-61
2023/07/18 01:55:00;;;;;;;11.47;7.27;;;17.90;86.30;;;20.39;58.01;101903.66;5036230;28;20199;-61
2023/07/18 01:57:42;;;;;;;10.33;7.30;;;17.90;86.30;;;20.22;58.53;101898.75;5039610;28;20190;-60
2023/07/18 02:00:12;;;;;;;7.63;6.43;;;17.90;86.30;;;20.09;59.26;101893.38;5054770;28;20214;-58
2023/07/18 02:02:40;;;;;;;8.43;6.27;;;17.70;86.40;;;20.01;59.13;101903.50;5055100;28;20232;-60
2023/07/18 02:05:08;;;;;;;11.60;7.27;;;17.70;86.60;;;19.95;59.72;101897.13;5054916;28;20659;-61
2023/07/18 02:07:36;;;;;;;9.67;7.50;;;17.60;87.00;;;19.87;59.64;101893.84;5053550;28;20225;-61
2023/07/18 02:10:04;;;;;;;11.60;6.97;;;17.50;87.30;;;19.79;59.44;101894.88;5039615;28;20222;-59
2023/07/18 02:12:34;;;;;;;8.63;7.27;;;17.50;87.50;;;19.68;60.09;101894.69;5036552;28;20222;-61
2023/07/18 02:15:01;;;;;;;10.93;7.40;;;17.40;87.90;;;19.61;60.19;101893.84;5054593;28;20583;-60
2023/07/18 02:17:28;;;;;;;8.67;7.33;;;17.30;88.10;;;19.57;60.56;101904.13;5054745;28;20198;-60
2023/07/18 02:19:55;;;;;;;9.07;7.60;;;17.20;88.40;;;19.49;60.59;101905.13;5054421;28;20803;-61
2023/07/18 02:22:22;;;;;;;10.30;6.97;;;17.20;88.60;;;19.40;60.75;101903.69;5054464;28;20650;-61
2023/07/18 02:24:49;;;;;;;9.47;7.60;;;17.10;88.70;;;19.38;61.05;101902.25;5051337;28;20221;-60
2023/07/18 02:27:19;;;;;;;11.17;8.40;;;17.10;89.00;;;19.32;61.30;101903.88;5037498;28;20194;-61
2023/07/18 02:29:47;;;;;;;9.67;7.13;;;17.00;89.00;;;19.28;61.05;101902.59;5054803;28;20697;-62
2023/07/18 02:32:16;;;;;;;9.03;7.43;;;16.90;89.20;;;19.28;61.55;101891.13;5054393;28;20308;-62
2023/07/18 02:34:44;;;;;;;9.30;7.27;;;16.90;89.30;;;19.34;60.96;101900.97;5054269;28;20217;-62
2023/07/18 02:37:11;;;;;;;7.67;5.63;;;16.90;89.40;;;19.44;61.18;101898.78;5054337;28;20204;-60
2023/07/18 02:39:44;;;;;;;9.03;6.77;;;16.90;90.10;;;19.58;60.98;101893.25;5047604;28;20294;-61
2023/07/18 02:42:11;;;;;;;8.97;6.77;;;17.00;90.10;;;19.63;60.76;101895.28;5034472;28;20273;-60
2023/07/18 02:44:38;;;;;;;11.03;8.13;;;17.00;89.40;;;19.63;60.08;101894.47;5034183;28;20223;-59
2023/07/18 02:47:07;;;;;;;9.73;7.17;;;17.10;88.90;;;19.65;60.20;101895.91;5034085;28;20186;-61
2023/07/18 02:49:34;;;;;;;9.03;7.17;;;17.10;88.80;;;19.67;60.07;101903.69;5033835;28;20206;-61
2023/07/18 02:52:02;;;;;;;8.30;6.07;;;17.10;89.00;;;19.75;60.55;101893.66;5033935;28;20213;-60
2023/07/18 02:54:30;;;;;;;8.57;5.97;;;17.20;89.50;;;19.84;59.87;101892.41;5032967;28;20256;-60
2023/07/18 02:56:58;;;;;;;8.77;6.73;;;17.20;89.10;;;19.89;59.64;101902.47;5034170;28;20203;-62
2023/07/18 02:59:25;;;;;;;8.43;6.67;;;17.30;88.50;;;19.92;59.17;101897.53;5053431;28;20679;-61
2023/07/18 03:01:57;;;;;;;7.60;5.73;;;17.30;88.30;;;19.99;59.54;101898.34;5053988;28;20573;-60
2023/07/18 03:04:29;;;;;;;8.60;5.83;;;17.40;88.60;;;20.09;59.48;101904.09;5053879;28;20555;-60
2023/07/18 03:06:57;;;;;;;7.37;5.70;;;17.50;88.70;;;20.23;58.72;101895.03;5034467;28;20206;-59
2023/07/18 03:09:24;;;;;;;9.73;6.20;;;17.60;88.30;;;20.29;58.64;101895.22;5049178;28;20288;-61
2023/07/18 03:11:51;;;;;;;8.50;6.07;;;17.60;87.30;;;20.28;58.01;101902.44;5053806;28;20213;-60
2023/07/18 03:14:18;;;;;;;8.87;6.33;;;17.70;86.90;;;20.23;58.18;101905.72;5035725;28;20268;-61
2023/07/18 03:16:45;;;;;;;9.53;7.37;;;17.70;86.40;;;20.12;58.04;101908.19;5033862;28;20273;-59
2023/07/18 03:19:14;;;;;;;11.50;7.20;;;17.60;86.10;;;19.96;58.34;101909.47;5033382;28;20206;-62
2023/07/18 03:21:43;;;;;;;10.53;7.23;;;17.60;86.20;;;19.84;58.50;101905.78;5033471;28;20191;-60
2023/07/18 03:24:10;;;;;;;12.53;8.40;;;17.50;86.30;;;19.69;59.41;101907.81;5041928;28;20285;-60
2023/07/18 03:26:37;;;;;;;8.97;7.07;;;17.40;86.60;;;19.56;59.52;101911.28;5053461;28;20192;-62
2023/07/18 03:29:05;;;;;;;9.23;7.23;;;17.30;86.80;;;19.47;59.91;101914.38;5053608;28;20209;-61
2023/07/18 03:31:33;;;;;;;13.20;7.50;;;17.20;87.30;;;19.38;59.79;101912.94;5053724;28;20630;-61
2023/07/18 03:34:00;;;;;;;9.03;7.60;;;17.10;87.50;;;19.30;60.13;101918.44;5053171;28;20221;-60
2023/07/18 03:36:28;;;;;;;8.80;6.87;;;17.00;87.90;;;19.21;60.66;101922.31;5049452;28;20225;-61
2023/07/18 03:38:56;;;;;;;11.10;7.77;;;16.90;88.10;;;19.20;60.72;101923.34;5032769;28;20229;-61
2023/07/18 03:41:23;;;;;;;8.77;6.77;;;16.90;89.20;;;19.16;60.66;101914.91;5033400;28;20191;-60
2023/07/18 03:43:50;;;;;;;11.53;7.43;;;16.80;88.60;;;19.15;60.58;101909.78;5032778;28;20664;-62
2023/07/18 03:46:17;;;;;;;9.40;7.27;;;16.80;88.60;;;19.16;60.49;101916.78;5031684;28;20277;-60
2023/07/18 03:48:44;;;;;;;11.23;8.20;;;16.70;88.80;;;19.14;60.91;101918.78;5032565;28;20182;-61
2023/07/18 03:51:11;;;;;;;9.73;7.80;;;16.70;89.20;;;19.10;60.64;101909.56;5040597;28;20198;-62
2023/07/18 03:53:39;;;;;;;10.73;7.67;;;16.70;89.20;;;19.06;60.93;101919.00;5053221;28;20197;-62
2023/07/18 03:56:08;;;;;;;12.03;8.00;;;16.70;89.30;;;19.02;61.23;101928.44;5053241;28;20259;-62
2023/07/18 03:58:35;;;;;;;10.73;7.60;;;16.60;89.30;;;19.02;61.29;101929.22;5052158;28;20280;-62
2023/07/18 04:01:10;;;;;;;11.20;7.63;;;16.60;89.50;;;18.90;61.33;101928.16;5052979;28;20243;-62
2023/07/18 04:03:38;;;;;;;9.23;7.80;;;16.60;89.60;;;18.87;61.31;101929.38;5052948;28;20178;-63
2023/07/18 04:06:06;;;;;;;9.43;7.67;;;16.60;89.70;;;18.84;61.61;101924.47;5040729;28;20213;-63
2023/07/18 04:08:33;;;;;;;11.50;7.90;;;16.50;89.70;;;18.82;61.53;101915.00;5032998;28;20711;-62
2023/07/18 04:11:00;;;;;;;12.33;8.63;;;16.50;89.80;;;18.85;61.51;101910.09;5032960;28;20309;-62
2023/07/18 04:13:29;;;;;;;10.83;7.60;;;16.50;90.00;;;18.94;61.34;101914.22;5033285;28;20214;-62
2023/07/18 04:15:58;;;;;;;9.50;7.77;;;16.50;90.00;;;18.96;61.34;101910.53;5032885;28;20218;-60
2023/07/18 04:18:25;;;;;;;10.47;8.00;;;16.50;90.00;;;18.93;61.42;101917.94;5033067;28;20659;-63
2023/07/18 04:21:00;;;;;;;12.63;7.00;;;16.50;90.00;;;18.88;61.49;101923.03;5044443;28;20238;-60
2023/07/18 04:23:28;;;;;;;10.30;6.90;;;16.50;89.90;;;18.92;61.58;101920.81;5052832;28;20181;-60
2023/07/18 04:25:58;;;;;;;9.37;7.47;;;16.50;89.90;;;18.92;61.24;101920.81;5052468;28;20197;-61
2023/07/18 04:28:29;;;;;;;10.43;7.93;;;16.50;89.90;;;18.96;61.40;101915.88;5052370;28;20217;-63
2023/07/18 04:30:56;;;;;;;9.23;7.33;;;16.50;90.00;;;18.92;61.61;101910.94;5052742;28;20205;-62
2023/07/18 04:33:23;;;;;;;8.30;7.00;;;16.50;90.30;;;18.92;61.25;101924.28;5050001;28;20225;-61
2023/07/18 04:35:51;;;;;;;8.40;6.97;;;16.50;89.90;;;18.90;61.40;101914.81;5036114;28;20194;-64
2023/07/18 04:38:18;;;;;;;11.40;6.57;;;16.50;89.90;;;18.98;61.64;101908.50;5036336;28;20191;-61
2023/07/18 04:40:45;;;;;;;8.43;7.50;;;16.50;90.00;;;19.07;61.33;101909.94;5035339;28;20257;-60
2023/07/18 04:43:12;;;;;;;9.37;7.53;;;16.60;90.10;;;19.13;61.11;101901.97;5036401;28;20658;-60
2023/07/18 04:45:45;;;;;;;12.13;8.00;;;16.60;90.00;;;19.15;60.58;101899.09;5036016;28;20187;-60
2023/07/18 04:48:14;;;;;;;18.07;7.37;;;16.60;89.80;;;19.13;60.73;101901.97;5041975;28;20653;-62
2023/07/18 04:50:42;;;;;;;11.03;7.53;;;16.70;89.80;;;19.18;60.80;101909.38;5055669;28;20700;-63
2023/07/18 04:53:10;;;;;;;11.00;7.27;;;16.70;89.70;;;19.20;60.48;101902.00;5056378;28;20202;-62
2023/07/18 04:55:38;;;;;;;7.80;6.37;;;16.70;89.60;;;19.18;60.38;101909.38;5056070;28;20269;-64
2023/07/18 04:58:08;;;;;;;8.53;6.30;;;16.70;89.20;;;19.27;60.28;101902.81;5055806;28;20272;-62
2023/07/18 05:00:36;;;;;;;7.93;6.97;;;16.70;89.10;;;19.37;60.18;101903.28;5055377;28;20293;-62
2023/07/18 05:03:05;;;;;;;7.93;6.90;;;16.80;89.20;;;19.39;60.12;101901.22;5044773;28;20639;-62
2023/07/18 05:05:32;;;;;;;8.80;6.93;;;16.80;89.10;;;19.36;59.99;101906.97;5036323;28;20206;-63
2023/07/18 05:08:00;;;;;;;8.83;7.23;;;16.80;88.90;;;19.42;59.86;101914.97;5035641;28;20269;-59
2023/07/18 05:10:27;;;;;;;8.57;7.40;;;16.90;88.90;;;19.46;60.18;101923.44;5035205;28;20220;-62
2023/07/18 05:12:56;;;;;;;9.17;7.20;;;16.90;89.00;;;19.53;60.10;101916.25;5040571;28;20209;-61
2023/07/18 05:15:23;;;;;;;12.70;7.50;;;17.00;89.60;;;19.59;59.96;101923.41;5055467;28;20218;-59
2023/07/18 05:17:51;;;;;;;9.53;7.00;;;17.00;88.80;;;19.62;59.74;101915.00;5040235;28;20680;-62
2023/07/18 05:20:20;;;;;;;10.27;6.77;;;17.00;88.60;;;19.60;59.75;101922.41;5035116;28;20218;-62
2023/07/18 05:22:47;;;;;;;8.93;6.60;;;17.10;88.60;;;19.61;59.42;101926.75;5035216;28;20182;-63
2023/07/18 05:25:16;;;;;;;8.27;6.20;;;17.10;88.40;;;19.64;59.33;101922.81;5035767;28;20198;-61
2023/07/18 05:27:44;;;;;;;10.03;6.80;;;17.10;88.20;;;19.58;59.42;101932.47;5035570;28;20646;-62
2023/07/18 05:30:13;;;;;;;10.00;6.60;;;17.10;88.20;;;19.56;59.46;101921.97;5035030;28;20211;-59
2023/07/18 05:32:40;;;;;;;9.27;6.67;;;17.10;88.30;;;19.62;59.65;101923.03;5035315;28;20628;-60
2023/07/18 05:35:14;;;;;;;7.50;6.40;;;17.20;88.50;;;19.61;59.43;101928.59;5034978;28;20250;-63
2023/07/18 05:37:43;;;;;;;8.00;6.43;;;17.20;88.30;;;19.55;59.91;101924.88;5034265;28;20270;-63
2023/07/18 05:40:11;;;;;;;10.57;6.60;;;17.20;88.10;;;19.55;59.76;101919.53;5034466;28;20297;-62
2023/07/18 05:42:40;;;;;;;13.07;6.87;;;17.20;88.00;;;19.59;59.69;101931.44;5034992;28;20186;-62
2023/07/18 05:45:09;;;;;;;8.00;5.57;;;17.20;88.10;;;19.66;59.35;101934.94;5039129;28;20226;-62
2023/07/18 05:47:36;;;;;;;7.57;6.73;;;17.20;88.00;;;19.74;59.69;101934.75;5054342;28;20654;-61
2023/07/18 05:50:07;;;;;;;9.23;6.07;;;17.30;88.20;;;19.85;59.20;101934.13;5054483;28;20218;-63
2023/07/18 05:52:34;;;;;;;7.93;5.67;;;17.30;88.00;;;19.88;58.77;101933.72;5055156;28;20201;-63
2023/07/18 05:55:05;;;;;;;6.23;5.10;;;17.30;87.80;;;20.07;58.62;101940.06;5054723;28;20282;-60
2023/07/18 05:57:32;;;;;;;10.77;6.47;;;17.40;88.20;;;20.26;58.53;101941.94;5049617;28;20627;-62
2023/07/18 05:59:59;;;;;;;9.50;6.40;;;17.50;87.90;;;20.41;57.68;101934.50;5043575;28;20214;-61
2023/07/18 06:02:27;;;;;;;7.27;5.70;;;17.60;87.60;;;20.40;58.01;101934.69;5041139;28;20234;-61
2023/07/18 06:04:55;;;;;;;7.53;5.97;;;17.70;87.00;;;20.42;57.98;101935.34;5034638;28;20211;-61
2023/07/18 06:07:22;;;;;;;12.80;5.97;;;17.80;86.90;;;20.40;57.79;101942.72;5034300;28;20194;-62
2023/07/18 06:09:52;;;;;;;8.30;5.53;;;17.80;86.50;;;20.45;57.51;101940.25;5033990;28;20305;-62
2023/07/18 06:12:20;;;;;;;5.87;5.20;;;17.90;86.40;;;20.52;57.74;101935.69;5035720;28;20652;-62
2023/07/18 06:14:48;;;;;;;8.87;5.40;;;18.00;86.50;;;20.70;57.24;101933.19;5034332;28;20217;-60
2023/07/18 06:17:16;;;;;;;8.97;4.73;;;18.00;86.60;;;20.91;57.19;101932.88;5034677;28;20290;-60
2023/07/18 06:19:46;;;;;;;7.73;4.97;;;18.10;86.50;;;21.07;56.39;101928.91;5034193;28;20256;-61
2023/07/18 06:22:13;;;;;;;9.67;4.87;;;18.20;86.40;;;21.24;55.95;101922.84;5033672;28;20605;-62
2023/07/18 06:24:41;;;;;;;7.47;5.27;;;18.30;86.30;;;21.40;55.91;101919.66;5034333;28;20197;-62
2023/07/18 06:27:08;;;;;;;10.70;5.80;;;18.40;86.20;;;21.57;56.08;101926.13;5034047;28;20277;-61
2023/07/18 06:29:37;;;;;;;8.70;5.20;;;18.50;85.80;;;21.69;55.06;101928.09;5033596;28;20754;-61
2023/07/18 06:32:05;;;;;;;10.00;5.17;;;18.60;85.20;;;21.73;55.05;101930.13;5034004;28;20196;-60
2023/07/18 06:34:33;;;;;;;12.87;4.93;;;18.70;84.80;;;21.76;54.78;101932.38;5033979;28;20277;-61
2023/07/18 06:37:02;;;;;;;6.73;4.47;;;18.80;84.60;;;21.84;54.78;101937.50;5033615;28;20608;-61
2023/07/18 06:39:29;;;;;;;9.80;5.23;;;18.90;84.70;;;21.93;54.56;101930.00;5033577;28;20225;-61
2023/07/18 06:41:57;;;;;;;7.70;4.70;;;19.00;84.40;;;22.02;54.32;101934.03;5034211;28;20268;-60
2023/07/18 06:44:24;;;;;;;8.03;4.73;;;19.00;84.10;;;22.11;54.06;101930.00;5053340;28;20220;-60
2023/07/18 06:46:53;;;;;;;14.30;5.43;;;19.10;84.10;;;22.12;54.22;101931.66;5053382;28;20194;-60
2023/07/18 06:49:20;;;;;;;6.80;4.33;;;19.20;83.60;;;22.20;54.06;101931.41;5053476;28;20284;-62
2023/07/18 06:51:49;;;;;;;7.10;4.90;;;19.30;83.70;;;22.26;53.92;101927.81;5053299;28;20297;-61
2023/07/18 06:54:16;;;;;;;8.83;4.97;;;19.40;83.50;;;22.30;53.93;101926.31;5053272;28;20222;-61
2023/07/18 06:56:44;;;;;;;8.33;6.03;;;19.40;83.30;;;22.33;53.85;101925.88;5046748;28;20273;-61
2023/07/18 06:59:15;;;;;;;10.23;6.07;;;19.40;83.10;;;22.22;54.15;101922.09;5051869;28;20312;-59
2023/07/18 07:01:42;;;;;;;9.63;6.33;;;19.50;82.90;;;22.09;54.24;101924.06;5052942;28;20264;-60
2023/07/18 07:04:10;;;;;;;9.20;5.47;;;19.50;82.80;;;22.11;54.69;101933.53;5053266;28;20606;-61
2023/07/18 07:06:41;;;;;;;9.53;5.17;;;19.60;83.00;;;22.24;54.47;101922.69;5053048;28;20235;-61
2023/07/18 07:09:10;;;;;;;8.90;4.63;;;19.60;83.10;;;22.40;54.42;101923.94;5052536;28;20249;-59
2023/07/18 07:11:37;;;;;;;12.63;5.23;;;19.70;83.30;;;22.53;54.07;101923.81;5041583;28;20525;-61
2023/07/18 07:14:07;;;;;;;8.90;5.80;;;19.70;83.30;;;22.64;54.04;101920.41;5047430;28;20308;-61
2023/07/18 07:16:35;;;;;;;12.97;5.40;;;19.80;83.20;;;22.59;54.04;101927.44;5053258;28;20272;-59
2023/07/18 07:19:02;;;;;;;13.60;5.87;;;19.90;83.20;;;22.64;54.11;101916.88;5052500;28;20578;-61
2023/07/18 07:21:31;;;;;;;10.60;5.50;;;19.90;83.00;;;22.57;54.23;101916.94;5052766;28;20304;-59
2023/07/18 07:23:58;;;;;;;14.53;5.97;;;19.90;82.90;;;22.54;54.50;101916.56;5050837;28;20198;-61
2023/07/18 07:26:26;;;;;;;9.00;5.30;;;20.00;82.90;;;22.70;54.43;101916.00;5052071;28;20193;-60
2023/07/18 07:28:53;;;;;;;15.20;5.17;;;20.10;83.20;;;22.98;54.38;101918.09;5050695;28;20193;-60
2023/07/18 07:31:20;;;;;;;11.67;5.83;;;20.20;83.30;;;23.24;53.56;101917.75;5041518;28;20278;-61
2023/07/18 07:33:47;;;;;;;8.00;4.00;;;20.30;83.10;;;23.52;52.75;101915.28;5033164;28;20586;-61
2023/07/18 07:36:15;;;;;;;10.93;5.47;;;20.50;83.10;;;23.80;52.62;101922.66;5034246;28;20194;-61
2023/07/18 07:38:43;;;;;;;9.73;5.33;;;20.60;82.60;;;24.06;51.80;101912.31;5031559;28;20734;-61
2023/07/18 07:41:10;;;;;;;8.10;4.87;;;20.80;82.10;;;24.24;51.48;101919.44;5052092;28;20202;-60
2023/07/18 07:43:37;;;;;;;8.77;4.53;;;21.00;81.50;;;24.39;51.11;101917.06;5052447;28;20192;-62
2023/07/18 07:46:04;;;;;;;13.43;6.77;;;21.10;81.10;;;24.47;50.66;101913.19;5050676;28;20198;-61
2023/07/18 07:48:31;;;;;;;6.10;4.37;;;21.30;80.20;;;24.61;50.13;101914.56;5041306;28;20266;-61
2023/07/18 07:51:00;;;;;;;10.83;4.83;;;21.40;79.80;;;24.75;49.67;101913.22;5033095;28;20301;-54
2023/07/18 07:53:27;;;;;;;11.77;4.77;;;21.40;79.10;;;24.84;49.94;101907.25;5042275;28;20565;-55
2023/07/18 07:55:55;;;;;;;12.27;4.87;;;21.60;79.00;;;25.00;48.93;101913.75;5050827;28;20272;-58
2023/07/18 07:58:23;;;;;;;9.20;4.70;;;21.70;78.40;;;24.88;48.81;101910.28;5048516;28;20202;-56
2023/07/18 08:00:50;;;;;;;11.93;4.80;;;21.80;77.30;;;24.62;49.21;101918.91;5050591;28;20213;-56
2023/07/18 08:03:17;;;;;;;12.80;8.80;;;21.80;76.80;;;24.67;49.51;101919.00;5052346;28;20201;-57
2023/07/18 08:05:44;;;;;;;8.67;4.90;;;21.90;77.00;;;24.84;48.95;101915.31;5051981;28;20233;-63
2023/07/18 08:08:12;;;;;;;16.47;5.23;;;21.90;76.90;;;25.07;49.07;101913.59;5036053;28;20653;-60
2023/07/18 08:10:39;;;;;;;8.30;3.90;;;22.00;76.60;;;25.25;48.65;101905.28;5058689;28;20316;-57
2023/07/18 08:13:08;;;;;;;6.43;3.43;;;22.10;76.50;;;25.58;47.77;101899.16;5048028;28;20296;-53
2023/07/18 08:15:35;;;;;;;6.47;3.37;;;22.20;76.40;;;26.34;47.32;101904.63;5036092;28;20194;-55
2023/07/18 08:18:02;;;;;;;8.40;3.57;;;22.50;76.90;;;27.30;45.07;101908.44;5036178;28;20751;-56
2023/07/18 08:20:32;;;;;;;7.47;2.70;;;22.80;75.80;;;28.18;43.66;101900.47;5035260;28;20626;-57
2023/07/18 08:22:59;;;;;;;8.20;3.70;;;23.30;74.20;;;29.04;41.56;101900.81;5036574;28;20222;-57
2023/07/18 08:25:26;;;;;;;11.63;5.57;;;23.90;72.30;;;29.89;39.76;101893.78;5046177;28;20198;-53
2023/07/18 08:27:53;;;;;;;9.67;3.80;;;24.50;71.20;;;30.67;38.30;101892.97;5055669;28;20221;-55
2023/07/18 08:30:22;;;;;;;6.43;3.73;;;25.10;69.10;;;30.75;37.46;101880.69;5039033;28;20297;-55
2023/07/18 08:32:49;;;;;;;5.07;2.53;;;25.60;65.90;;;30.59;36.72;101882.72;5056465;28;20318;-57
2023/07/18 08:35:16;;;;;;;5.60;2.83;;;25.90;63.40;;;30.86;36.07;101892.34;5056439;28;20198;-57
2023/07/18 08:37:43;;;;;;;4.50;2.37;;;26.10;61.60;;;31.38;35.59;101876.16;5049579;28;20194;-58
2023/07/18 08:40:12;;;;;;;4.83;2.67;;;26.40;61.70;;;32.05;35.04;101884.28;5036060;28;20266;-56
2023/07/18 08:42:40;;;;;;;5.03;2.43;;;26.80;60.40;;;32.64;33.25;101880.31;5050615;28;20194;-54
2023/07/18 08:45:13;;;;;;;4.57;2.33;;;27.20;58.20;;;32.68;31.83;101875.88;5056179;28;20186;-57
2023/07/18 08:47:43;;;;;;;4.37;2.33;;;27.50;55.80;;;32.90;31.87;101873.34;5055959;28;20628;-57
2023/07/18 08:50:11;;;;;;;6.57;2.60;;;27.90;55.70;;;33.15;31.59;101883.91;5054670;28;20228;-56
2023/07/18 08:52:39;;;;;;;3.63;1.97;;;28.20;54.70;;;33.65;31.07;101873.25;5058539;28;20221;-56
2023/07/18 08:55:08;;;;;;;4.27;2.13;;;28.40;54.60;;;34.10;30.53;101869.66;5052729;28;20201;-54
2023/07/18 08:57:36;;;;;;;3.93;2.20;;;28.70;53.40;;;34.43;29.77;101860.22;5049567;28;20723;-56
2023/07/18 09:00:07;;;;;;;5.80;2.73;;;28.90;52.70;;;34.66;29.61;101867.38;5045494;28;20218;-51
2023/07/18 09:02:37;;;;;;;5.25;2.13;;;29.20;51.40;;;35.20;28.59;101865.56;5038445;28;20199;-56
2023/07/18 09:05:26;;;;;;;4.13;2.28;;;29.40;50.40;;;35.72;27.34;101853.81;5036130;28;20553;-57
2023/07/18 09:07:55;;;;;;;8.70;2.28;;;29.80;48.80;;;35.61;26.61;101859.88;5035973;28;20225;-55
2023/07/18 09:10:23;;;;;;;3.60;2.05;;;29.90;45.30;;;35.53;26.27;101857.91;5036518;28;20710;-52
2023/07/18 09:12:50;;;;;;;4.15;2.00;;;30.20;45.30;;;34.89;27.24;101848.25;5035851;28;20237;-53
2023/07/18 09:15:19;;;;;;;2.75;2.10;;;30.20;45.10;;;34.85;27.32;101858.22;5035790;28;20222;-54
2023/07/18 09:17:53;;;;;;;6.60;3.00;;;30.10;45.20;;;35.35;26.95;101848.72;5037839;28;20197;-57
2023/07/18 09:20:24;;;;;;;5.22;2.10;;;30.10;45.60;;;35.47;26.49;101848.97;5055026;28;20217;-55
2023/07/18 09:22:56;;;;;;;3.47;2.72;;;30.20;45.30;;;35.14;26.61;101844.91;5048897;28;20281;-53
2023/07/18 09:25:24;;;;;;;4.30;2.33;;;30.20;44.40;;;34.88;26.84;101844.69;5039594;28;20268;-52
2023/07/18 09:27:52;;;;;;;4.88;2.30;;;30.20;44.50;;;34.84;27.28;101845.63;5052961;28;20201;-56
2023/07/18 09:30:27;;;;;;;4.32;2.20;;;30.20;44.60;;;35.36;27.18;101847.63;5052052;28;20620;-56
2023/07/18 09:32:55;;;;;;;3.72;2.40;;;30.20;44.40;;;35.63;26.91;101844.75;5040111;28;20198;-56
2023/07/18 09:35:26;;;;;;;6.30;2.30;;;30.30;44.80;;;35.25;26.52;101840.81;5049629;28;20210;-58
2023/07/18 09:37:55;;;;;;;4.30;2.53;;;30.40;43.90;;;34.87;26.67;101842.28;5055052;28;20205;-57
2023/07/18 09:40:32;;;;;;;3.27;2.30;;;30.30;43.70;;;34.40;27.26;101844.41;5054777;28;20734;-58
2023/07/18 09:43:17;;;;;;;5.70;2.33;;;30.10;43.60;;;33.77;28.26;101843.53;5031456;28;20198;-61
2023/07/18 09:45:52;;;;;;;6.00;2.47;;;30.00;43.90;;;33.23;28.63;101845.03;5031302;28;20203;-59
2023/07/18 09:48:23;;;;;;;3.57;2.10;;;29.60;44.10;;;32.75;28.91;101840.84;5069527;28;20731;-56
2023/07/18 09:50:58;;;;;;;5.77;2.10;;;29.30;44.80;;;32.63;29.80;101845.94;5074416;28;20546;-57
2023/07/18 09:53:30;;;;;;;5.50;2.10;;;29.00;45.30;;;32.52;29.27;101841.75;5052174;28;20314;-57
2023/07/18 09:56:00;;;;;;;4.10;2.27;;;28.80;45.60;;;32.97;29.70;101843.78;5045389;28;20187;-54
2023/07/18 09:58:29;;;;;;;7.83;2.40;;;28.70;46.50;;;34.07;28.41;101837.47;5046551;28;20224;-56
2023/07/18 10:00:59;;;;;;;3.55;2.00;;;28.80;46.80;;;35.35;26.53;101833.09;5053778;28;20317;-56
2023/07/18 10:03:31;;;;;;;6.05;1.83;;;29.20;46.70;;;36.62;25.13;101831.13;5064641;28;20185;-56
2023/07/18 10:06:01;;;;;;;5.05;2.35;;;29.80;46.10;;;37.10;23.24;101830.97;5059166;28;20197;-55
2023/07/18 10:08:28;;;;;;;6.25;2.17;;;30.20;42.90;;;37.05;23.45;101833.88;5041822;28;20211;-56
2023/07/18 10:11:02;;;;;;;6.50;2.60;;;30.70;41.90;;;36.79;24.14;101824.84;5036394;28;20314;-58
2023/07/18 10:13:30;;;;;;;2.35;2.00;;;31.00;41.30;;;36.49;24.49;101823.84;5052651;28;20213;-57
2023/07/18 10:16:18;;;;;;;5.40;2.00;;;31.10;41.30;;;36.04;24.50;101829.91;5051480;28;20281;-55